Pagrindinis puslapis
METAR-TAF:

METAR-TAF

Oro uostai :

Kaskavelas, Parana, Brazilija

platuma: 25-00-08S, ilguma: 53-30-07W, Aukštis: 754 m

Dabartinis oras

Ataskaita buvo paskelbta 16 valandos ir 34 minutes, ne 18:00 UTC
Vėjas 8 kt iš Šiaurės/Šiaurės Vakarų
Temperatūra 30°C
Drėgmė 49%
Slėgis 1017 hPa
Matomumas 10 km arba daugiau
Išsisklaidę debesys ne aukštis 3500 ft
Mažai debesys ne aukštis 4000 ft, aukštai iškilę kamuoliniai debesys.

METAR: SBCA 301800Z 34008KT 9999 SCT035 FEW040TCU 30/18 Q1017

Laikas: 07:34 (10:34 UTC)


TAF: trūkstamas

Orai ataskaitas ir orų prognozės (METAR, TAF).

turimą stotys yra geltonos ir raudonos taškus žemėlapyje.

Perkelti pele per norėdami pamatyti stoties vardą.

Tada spustelėkite, norėdami matyti oro stebėjimo ir prognozės.

Norėdami pakeisti žemėlapį: spustelėkite ant žalios mygtukų su juodo kryžiaus žemyn,; žalią mygtuką su brūkšneliu, jei norite nutolinti; arba žalių rodyklių gretimoms žemėlapius.


METAR-TAF: